sensor_id;sensor_type;location;lat;lon;timestamp;P1;durP1;ratioP1;P2;durP2;ratioP2
4835;SDS011;2432;51.226;6.904;2022-09-21T00:00:52;13.80;;;4.60;;
4835;SDS011;2432;51.226;6.904;2022-09-21T00:03:19;12.93;;;3.90;;
4835;SDS011;2432;51.226;6.904;2022-09-21T00:05:45;17.23;;;4.60;;
4835;SDS011;2432;51.226;6.904;2022-09-21T00:08:12;13.00;;;4.13;;
4835;SDS011;2432;51.226;6.904;2022-09-21T00:10:39;20.40;;;4.00;;
4835;SDS011;2432;51.226;6.904;2022-09-21T00:13:06;11.90;;;3.90;;
4835;SDS011;2432;51.226;6.904;2022-09-21T00:15:33;19.70;;;4.80;;
4835;SDS011;2432;51.226;6.904;2022-09-21T00:18:00;17.17;;;4.70;;
4835;SDS011;2432;51.226;6.904;2022-09-21T00:20:27;19.67;;;5.30;;
4835;SDS011;2432;51.226;6.904;2022-09-21T00:22:54;17.07;;;5.37;;
4835;SDS011;2432;51.226;6.904;2022-09-21T00:25:20;18.33;;;5.23;;
4835;SDS011;2432;51.226;6.904;2022-09-21T00:27:47;12.53;;;3.90;;
4835;SDS011;2432;51.226;6.904;2022-09-21T00:30:15;18.87;;;4.27;;
4835;SDS011;2432;51.226;6.904;2022-09-21T00:32:41;13.97;;;3.90;;
4835;SDS011;2432;51.226;6.904;2022-09-21T00:35:08;19.60;;;4.53;;
4835;SDS011;2432;51.226;6.904;2022-09-21T00:37:35;13.60;;;4.10;;
4835;SDS011;2432;51.226;6.904;2022-09-21T00:40:01;12.60;;;3.90;;
4835;SDS011;2432;51.226;6.904;2022-09-21T00:42:30;17.30;;;5.67;;
4835;SDS011;2432;51.226;6.904;2022-09-21T00:44:59;16.67;;;6.93;;
4835;SDS011;2432;51.226;6.904;2022-09-21T00:50:11;17.20;;;4.90;;
4835;SDS011;2432;51.226;6.904;2022-09-21T00:52:46;18.23;;;5.27;;
4835;SDS011;2432;51.226;6.904;2022-09-21T00:58:05;13.27;;;4.50;;
4835;SDS011;2432;51.226;6.904;2022-09-21T01:00:37;17.93;;;5.10;;
4835;SDS011;2432;51.226;6.904;2022-09-21T01:03:05;22.93;;;5.70;;
4835;SDS011;2432;51.226;6.904;2022-09-21T01:05:34;14.07;;;4.30;;
4835;SDS011;2432;51.226;6.904;2022-09-21T01:08:01;14.63;;;4.40;;
4835;SDS011;2432;51.226;6.904;2022-09-21T01:10:33;13.27;;;4.40;;
4835;SDS011;2432;51.226;6.904;2022-09-21T01:13:12;14.57;;;3.97;;
4835;SDS011;2432;51.226;6.904;2022-09-21T01:23:41;13.37;;;3.77;;
4835;SDS011;2432;51.226;6.904;2022-09-21T01:26:39;14.07;;;4.67;;
4835;SDS011;2432;51.226;6.904;2022-09-21T01:29:33;17.60;;;3.80;;
4835;SDS011;2432;51.226;6.904;2022-09-21T01:34:34;15.17;;;3.97;;
4835;SDS011;2432;51.226;6.904;2022-09-21T01:37:10;9.77;;;2.87;;
4835;SDS011;2432;51.226;6.904;2022-09-21T01:39:42;11.87;;;3.30;;
4835;SDS011;2432;51.226;6.904;2022-09-21T01:42:12;15.93;;;3.90;;
4835;SDS011;2432;51.226;6.904;2022-09-21T01:44:41;13.93;;;3.90;;
4835;SDS011;2432;51.226;6.904;2022-09-21T01:47:10;13.80;;;3.23;;
4835;SDS011;2432;51.226;6.904;2022-09-21T01:49:43;15.27;;;4.40;;
4835;SDS011;2432;51.226;6.904;2022-09-21T01:52:17;16.70;;;4.00;;
4835;SDS011;2432;51.226;6.904;2022-09-21T01:54:56;13.53;;;4.53;;
4835;SDS011;2432;51.226;6.904;2022-09-21T01:57:31;13.80;;;4.33;;
4835;SDS011;2432;51.226;6.904;2022-09-21T02:00:03;13.50;;;4.37;;
4835;SDS011;2432;51.226;6.904;2022-09-21T02:02:40;15.63;;;4.57;;
4835;SDS011;2432;51.226;6.904;2022-09-21T02:05:16;14.80;;;3.80;;
4835;SDS011;2432;51.226;6.904;2022-09-21T02:07:45;20.70;;;4.23;;
4835;SDS011;2432;51.226;6.904;2022-09-21T02:10:15;15.37;;;3.93;;
4835;SDS011;2432;51.226;6.904;2022-09-21T02:12:46;16.70;;;4.50;;
4835;SDS011;2432;51.226;6.904;2022-09-21T02:15:14;15.33;;;4.47;;
4835;SDS011;2432;51.226;6.904;2022-09-21T02:20:17;15.30;;;4.70;;
4835;SDS011;2432;51.226;6.904;2022-09-21T02:25:36;15.93;;;4.53;;
4835;SDS011;2432;51.226;6.904;2022-09-21T02:28:21;18.27;;;4.97;;
4835;SDS011;2432;51.226;6.904;2022-09-21T02:31:00;18.73;;;5.37;;
4835;SDS011;2432;51.226;6.904;2022-09-21T02:36:46;14.03;;;4.17;;
4835;SDS011;2432;51.226;6.904;2022-09-21T02:39:20;18.77;;;5.20;;
4835;SDS011;2432;51.226;6.904;2022-09-21T02:42:04;14.70;;;4.43;;
4835;SDS011;2432;51.226;6.904;2022-09-21T02:44:42;18.30;;;5.00;;
4835;SDS011;2432;51.226;6.904;2022-09-21T02:47:18;15.90;;;4.70;;
4835;SDS011;2432;51.226;6.904;2022-09-21T02:49:53;13.37;;;4.20;;
4835;SDS011;2432;51.226;6.904;2022-09-21T02:52:36;14.30;;;4.67;;
4835;SDS011;2432;51.226;6.904;2022-09-21T02:55:06;15.60;;;4.30;;
4835;SDS011;2432;51.226;6.904;2022-09-21T02:57:33;18.00;;;4.87;;
4835;SDS011;2432;51.226;6.904;2022-09-21T03:00:03;15.13;;;4.50;;
4835;SDS011;2432;51.226;6.904;2022-09-21T03:02:38;16.17;;;4.83;;
4835;SDS011;2432;51.226;6.904;2022-09-21T03:05:06;17.80;;;4.80;;
4835;SDS011;2432;51.226;6.904;2022-09-21T03:07:34;16.90;;;5.13;;
4835;SDS011;2432;51.226;6.904;2022-09-21T03:10:01;18.03;;;4.80;;
4835;SDS011;2432;51.226;6.904;2022-09-21T03:12:27;20.40;;;5.60;;
4835;SDS011;2432;51.226;6.904;2022-09-21T03:14:54;17.17;;;5.93;;
4835;SDS011;2432;51.226;6.904;2022-09-21T03:17:21;17.80;;;6.17;;
4835;SDS011;2432;51.226;6.904;2022-09-21T03:19:47;27.77;;;5.93;;
4835;SDS011;2432;51.226;6.904;2022-09-21T03:22:14;16.90;;;6.40;;
4835;SDS011;2432;51.226;6.904;2022-09-21T03:24:42;16.10;;;5.40;;
4835;SDS011;2432;51.226;6.904;2022-09-21T03:27:15;18.60;;;5.90;;
4835;SDS011;2432;51.226;6.904;2022-09-21T03:29:44;15.90;;;5.23;;
4835;SDS011;2432;51.226;6.904;2022-09-21T03:32:11;21.40;;;6.07;;
4835;SDS011;2432;51.226;6.904;2022-09-21T03:34:37;15.13;;;5.73;;
4835;SDS011;2432;51.226;6.904;2022-09-21T03:37:04;22.77;;;6.60;;
4835;SDS011;2432;51.226;6.904;2022-09-21T03:39:32;16.83;;;5.93;;
4835;SDS011;2432;51.226;6.904;2022-09-21T03:42:00;16.43;;;5.97;;
4835;SDS011;2432;51.226;6.904;2022-09-21T03:44:27;17.87;;;6.17;;
4835;SDS011;2432;51.226;6.904;2022-09-21T03:46:54;18.50;;;6.30;;
4835;SDS011;2432;51.226;6.904;2022-09-21T03:49:21;21.13;;;5.63;;
4835;SDS011;2432;51.226;6.904;2022-09-21T03:51:48;18.87;;;6.20;;
4835;SDS011;2432;51.226;6.904;2022-09-21T03:54:14;19.60;;;6.30;;
4835;SDS011;2432;51.226;6.904;2022-09-21T03:56:40;21.70;;;6.20;;
4835;SDS011;2432;51.226;6.904;2022-09-21T03:59:07;20.27;;;7.20;;
4835;SDS011;2432;51.226;6.904;2022-09-21T04:01:39;21.50;;;6.50;;
4835;SDS011;2432;51.226;6.904;2022-09-21T04:04:05;17.80;;;6.20;;
4835;SDS011;2432;51.226;6.904;2022-09-21T04:06:32;19.03;;;6.80;;
4835;SDS011;2432;51.226;6.904;2022-09-21T04:08:59;16.10;;;6.90;;
4835;SDS011;2432;51.226;6.904;2022-09-21T04:11:27;19.63;;;6.30;;
4835;SDS011;2432;51.226;6.904;2022-09-21T04:13:55;20.27;;;6.73;;
4835;SDS011;2432;51.226;6.904;2022-09-21T04:16:25;23.33;;;7.13;;
4835;SDS011;2432;51.226;6.904;2022-09-21T04:18:52;22.40;;;6.17;;
4835;SDS011;2432;51.226;6.904;2022-09-21T04:21:19;20.43;;;7.50;;
4835;SDS011;2432;51.226;6.904;2022-09-21T04:23:47;22.87;;;7.00;;
4835;SDS011;2432;51.226;6.904;2022-09-21T04:26:28;24.10;;;8.17;;
4835;SDS011;2432;51.226;6.904;2022-09-21T04:28:57;18.00;;;6.77;;
4835;SDS011;2432;51.226;6.904;2022-09-21T04:31:25;19.83;;;6.93;;
4835;SDS011;2432;51.226;6.904;2022-09-21T04:33:53;19.00;;;7.00;;
4835;SDS011;2432;51.226;6.904;2022-09-21T04:36:20;28.37;;;7.70;;
4835;SDS011;2432;51.226;6.904;2022-09-21T04:38:48;23.60;;;7.30;;
4835;SDS011;2432;51.226;6.904;2022-09-21T04:41:16;17.30;;;7.03;;
4835;SDS011;2432;51.226;6.904;2022-09-21T04:43:44;19.63;;;7.37;;
4835;SDS011;2432;51.226;6.904;2022-09-21T04:46:12;22.00;;;7.80;;
4835;SDS011;2432;51.226;6.904;2022-09-21T04:48:40;16.87;;;7.67;;
4835;SDS011;2432;51.226;6.904;2022-09-21T04:51:08;19.97;;;7.03;;
4835;SDS011;2432;51.226;6.904;2022-09-21T04:53:35;18.37;;;7.10;;
4835;SDS011;2432;51.226;6.904;2022-09-21T04:56:04;25.27;;;6.80;;
4835;SDS011;2432;51.226;6.904;2022-09-21T04:58:31;19.50;;;6.73;;
4835;SDS011;2432;51.226;6.904;2022-09-21T05:00:58;21.83;;;7.23;;
4835;SDS011;2432;51.226;6.904;2022-09-21T05:03:25;24.93;;;7.40;;
4835;SDS011;2432;51.226;6.904;2022-09-21T05:05:53;18.13;;;7.03;;
4835;SDS011;2432;51.226;6.904;2022-09-21T05:08:22;17.47;;;6.03;;
4835;SDS011;2432;51.226;6.904;2022-09-21T05:11:09;22.27;;;7.20;;
4835;SDS011;2432;51.226;6.904;2022-09-21T05:13:38;21.63;;;6.83;;
4835;SDS011;2432;51.226;6.904;2022-09-21T05:16:05;21.40;;;8.27;;
4835;SDS011;2432;51.226;6.904;2022-09-21T05:18:32;18.67;;;6.70;;
4835;SDS011;2432;51.226;6.904;2022-09-21T05:20:59;18.33;;;6.80;;
4835;SDS011;2432;51.226;6.904;2022-09-21T05:23:27;22.57;;;6.40;;
4835;SDS011;2432;51.226;6.904;2022-09-21T05:25:55;18.43;;;6.70;;
4835;SDS011;2432;51.226;6.904;2022-09-21T05:28:22;20.30;;;6.97;;
4835;SDS011;2432;51.226;6.904;2022-09-21T05:30:56;17.13;;;6.33;;
4835;SDS011;2432;51.226;6.904;2022-09-21T05:36:25;20.10;;;6.90;;
4835;SDS011;2432;51.226;6.904;2022-09-21T05:39:16;15.70;;;6.33;;
4835;SDS011;2432;51.226;6.904;2022-09-21T05:41:43;24.57;;;7.27;;
4835;SDS011;2432;51.226;6.904;2022-09-21T05:44:11;16.90;;;6.73;;
4835;SDS011;2432;51.226;6.904;2022-09-21T05:49:21;17.73;;;6.50;;
4835;SDS011;2432;51.226;6.904;2022-09-21T05:54:49;20.93;;;6.70;;
4835;SDS011;2432;51.226;6.904;2022-09-21T05:57:44;22.70;;;7.10;;
4835;SDS011;2432;51.226;6.904;2022-09-21T06:02:47;19.97;;;7.03;;
4835;SDS011;2432;51.226;6.904;2022-09-21T06:05:16;17.10;;;6.50;;
4835;SDS011;2432;51.226;6.904;2022-09-21T06:07:42;21.60;;;6.97;;
4835;SDS011;2432;51.226;6.904;2022-09-21T06:10:09;17.63;;;6.20;;
4835;SDS011;2432;51.226;6.904;2022-09-21T06:12:38;18.47;;;5.90;;
4835;SDS011;2432;51.226;6.904;2022-09-21T06:15:05;19.47;;;6.73;;
4835;SDS011;2432;51.226;6.904;2022-09-21T06:17:35;18.67;;;6.90;;
4835;SDS011;2432;51.226;6.904;2022-09-21T06:20:02;25.60;;;7.33;;
4835;SDS011;2432;51.226;6.904;2022-09-21T06:22:28;17.30;;;7.60;;
4835;SDS011;2432;51.226;6.904;2022-09-21T06:24:55;20.20;;;7.60;;
4835;SDS011;2432;51.226;6.904;2022-09-21T06:27:21;20.57;;;7.43;;
4835;SDS011;2432;51.226;6.904;2022-09-21T06:29:47;17.40;;;7.20;;
4835;SDS011;2432;51.226;6.904;2022-09-21T06:32:14;23.23;;;7.40;;
4835;SDS011;2432;51.226;6.904;2022-09-21T06:34:40;26.43;;;7.80;;
4835;SDS011;2432;51.226;6.904;2022-09-21T06:37:08;30.10;;;7.40;;
4835;SDS011;2432;51.226;6.904;2022-09-21T06:39:34;20.13;;;6.73;;
4835;SDS011;2432;51.226;6.904;2022-09-21T06:42:01;23.20;;;7.37;;
4835;SDS011;2432;51.226;6.904;2022-09-21T06:44:27;21.73;;;6.77;;
4835;SDS011;2432;51.226;6.904;2022-09-21T06:46:54;19.03;;;6.20;;
4835;SDS011;2432;51.226;6.904;2022-09-21T06:49:21;19.00;;;6.50;;
4835;SDS011;2432;51.226;6.904;2022-09-21T06:51:47;22.40;;;6.17;;
4835;SDS011;2432;51.226;6.904;2022-09-21T06:54:14;17.60;;;6.47;;
4835;SDS011;2432;51.226;6.904;2022-09-21T06:56:41;23.43;;;7.70;;
4835;SDS011;2432;51.226;6.904;2022-09-21T06:59:08;16.53;;;6.57;;
4835;SDS011;2432;51.226;6.904;2022-09-21T07:01:34;17.90;;;5.80;;
4835;SDS011;2432;51.226;6.904;2022-09-21T07:04:01;17.37;;;7.00;;
4835;SDS011;2432;51.226;6.904;2022-09-21T07:06:28;18.00;;;6.57;;
4835;SDS011;2432;51.226;6.904;2022-09-21T07:08:55;19.10;;;7.03;;
4835;SDS011;2432;51.226;6.904;2022-09-21T07:11:41;18.13;;;6.80;;
4835;SDS011;2432;51.226;6.904;2022-09-21T07:14:08;16.73;;;6.70;;
4835;SDS011;2432;51.226;6.904;2022-09-21T07:16:34;17.47;;;7.20;;
4835;SDS011;2432;51.226;6.904;2022-09-21T07:19:01;30.13;;;9.30;;
4835;SDS011;2432;51.226;6.904;2022-09-21T07:21:36;25.90;;;8.93;;
4835;SDS011;2432;51.226;6.904;2022-09-21T07:24:03;25.47;;;9.50;;
4835;SDS011;2432;51.226;6.904;2022-09-21T07:26:39;24.00;;;9.10;;
4835;SDS011;2432;51.226;6.904;2022-09-21T07:29:06;41.53;;;21.50;;
4835;SDS011;2432;51.226;6.904;2022-09-21T07:31:32;48.83;;;23.77;;
4835;SDS011;2432;51.226;6.904;2022-09-21T07:33:59;23.40;;;12.10;;
4835;SDS011;2432;51.226;6.904;2022-09-21T07:36:25;21.43;;;9.43;;
4835;SDS011;2432;51.226;6.904;2022-09-21T07:38:52;23.20;;;9.87;;
4835;SDS011;2432;51.226;6.904;2022-09-21T07:41:19;21.80;;;9.70;;
4835;SDS011;2432;51.226;6.904;2022-09-21T07:43:46;25.50;;;10.37;;
4835;SDS011;2432;51.226;6.904;2022-09-21T07:46:13;25.77;;;10.77;;
4835;SDS011;2432;51.226;6.904;2022-09-21T07:48:40;23.03;;;10.03;;
4835;SDS011;2432;51.226;6.904;2022-09-21T07:51:08;24.70;;;10.87;;
4835;SDS011;2432;51.226;6.904;2022-09-21T07:53:36;25.77;;;9.63;;
4835;SDS011;2432;51.226;6.904;2022-09-21T07:56:09;19.23;;;9.30;;
4835;SDS011;2432;51.226;6.904;2022-09-21T07:58:41;30.10;;;9.87;;
4835;SDS011;2432;51.226;6.904;2022-09-21T08:01:27;22.63;;;9.27;;
4835;SDS011;2432;51.226;6.904;2022-09-21T08:03:55;21.83;;;10.53;;
4835;SDS011;2432;51.226;6.904;2022-09-21T08:06:23;23.30;;;11.90;;
4835;SDS011;2432;51.226;6.904;2022-09-21T08:08:50;22.30;;;10.33;;
4835;SDS011;2432;51.226;6.904;2022-09-21T08:11:23;22.93;;;10.87;;
4835;SDS011;2432;51.226;6.904;2022-09-21T08:13:51;27.20;;;10.20;;
4835;SDS011;2432;51.226;6.904;2022-09-21T08:16:19;18.27;;;9.53;;
4835;SDS011;2432;51.226;6.904;2022-09-21T08:18:45;20.17;;;9.90;;
4835;SDS011;2432;51.226;6.904;2022-09-21T08:21:12;36.20;;;17.00;;
4835;SDS011;2432;51.226;6.904;2022-09-21T08:23:38;26.00;;;11.00;;
4835;SDS011;2432;51.226;6.904;2022-09-21T08:26:09;28.37;;;11.67;;
4835;SDS011;2432;51.226;6.904;2022-09-21T08:28:41;21.90;;;8.87;;
4835;SDS011;2432;51.226;6.904;2022-09-21T08:31:09;18.40;;;8.50;;
4835;SDS011;2432;51.226;6.904;2022-09-21T08:33:36;21.83;;;8.50;;
4835;SDS011;2432;51.226;6.904;2022-09-21T08:36:02;17.53;;;7.83;;
4835;SDS011;2432;51.226;6.904;2022-09-21T08:38:33;21.70;;;8.87;;
4835;SDS011;2432;51.226;6.904;2022-09-21T08:41:01;19.43;;;8.43;;
4835;SDS011;2432;51.226;6.904;2022-09-21T08:43:39;22.37;;;8.60;;
4835;SDS011;2432;51.226;6.904;2022-09-21T08:46:10;22.30;;;9.10;;
4835;SDS011;2432;51.226;6.904;2022-09-21T08:49:02;21.23;;;8.50;;
4835;SDS011;2432;51.226;6.904;2022-09-21T08:51:35;22.10;;;9.20;;
4835;SDS011;2432;51.226;6.904;2022-09-21T08:54:11;24.53;;;8.57;;
4835;SDS011;2432;51.226;6.904;2022-09-21T08:56:44;20.63;;;8.27;;
4835;SDS011;2432;51.226;6.904;2022-09-21T08:59:30;20.17;;;8.60;;
4835;SDS011;2432;51.226;6.904;2022-09-21T09:01:59;24.27;;;11.53;;
4835;SDS011;2432;51.226;6.904;2022-09-21T09:04:49;55.17;;;27.03;;
4835;SDS011;2432;51.226;6.904;2022-09-21T09:10:17;20.80;;;9.00;;
4835;SDS011;2432;51.226;6.904;2022-09-21T09:18:07;26.80;;;7.43;;
4835;SDS011;2432;51.226;6.904;2022-09-21T09:20:41;23.57;;;7.00;;
4835;SDS011;2432;51.226;6.904;2022-09-21T09:26:22;20.47;;;8.23;;
4835;SDS011;2432;51.226;6.904;2022-09-21T09:28:59;20.33;;;8.10;;
4835;SDS011;2432;51.226;6.904;2022-09-21T09:31:32;20.60;;;7.87;;
4835;SDS011;2432;51.226;6.904;2022-09-21T09:36:36;21.10;;;7.87;;
4835;SDS011;2432;51.226;6.904;2022-09-21T09:39:23;20.87;;;7.27;;
4835;SDS011;2432;51.226;6.904;2022-09-21T09:48:13;17.40;;;5.20;;
4835;SDS011;2432;51.226;6.904;2022-09-21T09:50:58;16.57;;;5.00;;
4835;SDS011;2432;51.226;6.904;2022-09-21T09:53:25;23.50;;;7.47;;
4835;SDS011;2432;51.226;6.904;2022-09-21T09:55:53;18.07;;;6.00;;
4835;SDS011;2432;51.226;6.904;2022-09-21T09:58:23;12.97;;;4.83;;
4835;SDS011;2432;51.226;6.904;2022-09-21T10:00:59;14.60;;;4.80;;
4835;SDS011;2432;51.226;6.904;2022-09-21T10:03:26;16.23;;;5.83;;
4835;SDS011;2432;51.226;6.904;2022-09-21T10:05:53;15.27;;;5.70;;
4835;SDS011;2432;51.226;6.904;2022-09-21T10:11:02;14.53;;;4.00;;
4835;SDS011;2432;51.226;6.904;2022-09-21T10:13:30;16.23;;;4.10;;
4835;SDS011;2432;51.226;6.904;2022-09-21T10:18:31;13.60;;;4.07;;
4835;SDS011;2432;51.226;6.904;2022-09-21T10:24:14;18.93;;;4.30;;
4835;SDS011;2432;51.226;6.904;2022-09-21T10:26:46;14.00;;;3.30;;
4835;SDS011;2432;51.226;6.904;2022-09-21T10:34:28;16.17;;;3.20;;
4835;SDS011;2432;51.226;6.904;2022-09-21T10:36:57;14.30;;;4.40;;
4835;SDS011;2432;51.226;6.904;2022-09-21T10:39:29;10.60;;;3.20;;
4835;SDS011;2432;51.226;6.904;2022-09-21T10:42:01;11.70;;;3.10;;
4835;SDS011;2432;51.226;6.904;2022-09-21T10:44:38;10.63;;;3.17;;
4835;SDS011;2432;51.226;6.904;2022-09-21T10:47:16;16.23;;;3.97;;
4835;SDS011;2432;51.226;6.904;2022-09-21T10:49:54;17.63;;;4.13;;
4835;SDS011;2432;51.226;6.904;2022-09-21T10:52:24;21.43;;;3.37;;
4835;SDS011;2432;51.226;6.904;2022-09-21T10:54:58;11.10;;;2.43;;
4835;SDS011;2432;51.226;6.904;2022-09-21T10:57:25;15.33;;;3.77;;
4835;SDS011;2432;51.226;6.904;2022-09-21T10:59:54;14.20;;;3.33;;
4835;SDS011;2432;51.226;6.904;2022-09-21T11:02:23;14.13;;;2.93;;
4835;SDS011;2432;51.226;6.904;2022-09-21T11:05:14;16.83;;;3.13;;
4835;SDS011;2432;51.226;6.904;2022-09-21T11:07:48;13.97;;;3.20;;
4835;SDS011;2432;51.226;6.904;2022-09-21T11:10:34;13.43;;;2.47;;
4835;SDS011;2432;51.226;6.904;2022-09-21T11:16:55;25.17;;;8.00;;
4835;SDS011;2432;51.226;6.904;2022-09-21T11:19:33;14.03;;;4.37;;
4835;SDS011;2432;51.226;6.904;2022-09-21T11:25:16;16.03;;;3.20;;
4835;SDS011;2432;51.226;6.904;2022-09-21T11:28:00;17.27;;;2.70;;
4835;SDS011;2432;51.226;6.904;2022-09-21T11:30:39;13.87;;;3.63;;
4835;SDS011;2432;51.226;6.904;2022-09-21T11:33:38;17.50;;;3.00;;
4835;SDS011;2432;51.226;6.904;2022-09-21T11:36:28;15.67;;;2.70;;
4835;SDS011;2432;51.226;6.904;2022-09-21T11:59:03;13.80;;;2.80;;
4835;SDS011;2432;51.226;6.904;2022-09-21T12:07:17;16.33;;;2.40;;
4835;SDS011;2432;51.226;6.904;2022-09-21T12:12:39;13.30;;;2.47;;
4835;SDS011;2432;51.226;6.904;2022-09-21T12:18:08;15.13;;;2.87;;
4835;SDS011;2432;51.226;6.904;2022-09-21T12:23:52;13.50;;;2.33;;
4835;SDS011;2432;51.226;6.904;2022-09-21T12:26:23;8.77;;;1.90;;
4835;SDS011;2432;51.226;6.904;2022-09-21T12:29:03;15.87;;;1.90;;
4835;SDS011;2432;51.226;6.904;2022-09-21T12:31:39;13.80;;;2.50;;
4835;SDS011;2432;51.226;6.904;2022-09-21T12:34:13;11.10;;;1.87;;
4835;SDS011;2432;51.226;6.904;2022-09-21T12:36:45;11.27;;;2.10;;
4835;SDS011;2432;51.226;6.904;2022-09-21T12:39:22;13.50;;;2.30;;
4835;SDS011;2432;51.226;6.904;2022-09-21T12:45:00;19.07;;;2.60;;
4835;SDS011;2432;51.226;6.904;2022-09-21T12:50:02;20.23;;;3.03;;
4835;SDS011;2432;51.226;6.904;2022-09-21T12:52:40;14.53;;;2.50;;
4835;SDS011;2432;51.226;6.904;2022-09-21T12:58:03;14.63;;;3.20;;
4835;SDS011;2432;51.226;6.904;2022-09-21T13:03:29;14.73;;;2.60;;
4835;SDS011;2432;51.226;6.904;2022-09-21T13:08:56;12.20;;;2.10;;
4835;SDS011;2432;51.226;6.904;2022-09-21T13:11:30;14.73;;;2.30;;
4835;SDS011;2432;51.226;6.904;2022-09-21T13:13:59;11.07;;;2.07;;
4835;SDS011;2432;51.226;6.904;2022-09-21T13:16:33;11.57;;;2.20;;
4835;SDS011;2432;51.226;6.904;2022-09-21T13:19:04;12.33;;;2.47;;
4835;SDS011;2432;51.226;6.904;2022-09-21T13:21:46;12.27;;;1.90;;
4835;SDS011;2432;51.226;6.904;2022-09-21T13:24:41;12.27;;;2.20;;
4835;SDS011;2432;51.226;6.904;2022-09-21T13:27:10;13.37;;;1.87;;
4835;SDS011;2432;51.226;6.904;2022-09-21T13:29:38;13.50;;;2.10;;
4835;SDS011;2432;51.226;6.904;2022-09-21T13:34:36;11.60;;;1.90;;
4835;SDS011;2432;51.226;6.904;2022-09-21T13:39:43;15.00;;;2.20;;
4835;SDS011;2432;51.226;6.904;2022-09-21T13:47:41;9.33;;;1.40;;
4835;SDS011;2432;51.226;6.904;2022-09-21T13:52:50;10.03;;;1.50;;
4835;SDS011;2432;51.226;6.904;2022-09-21T13:55:25;11.43;;;1.83;;
4835;SDS011;2432;51.226;6.904;2022-09-21T13:57:56;13.03;;;2.07;;
4835;SDS011;2432;51.226;6.904;2022-09-21T14:00:32;9.57;;;1.67;;
4835;SDS011;2432;51.226;6.904;2022-09-21T14:03:03;11.70;;;1.90;;
4835;SDS011;2432;51.226;6.904;2022-09-21T14:05:46;12.00;;;1.90;;
4835;SDS011;2432;51.226;6.904;2022-09-21T14:10:50;13.00;;;2.37;;
4835;SDS011;2432;51.226;6.904;2022-09-21T14:13:32;13.50;;;2.63;;
4835;SDS011;2432;51.226;6.904;2022-09-21T14:19:00;12.23;;;1.80;;
4835;SDS011;2432;51.226;6.904;2022-09-21T14:21:28;10.80;;;2.03;;
4835;SDS011;2432;51.226;6.904;2022-09-21T14:29:27;16.03;;;2.87;;
4835;SDS011;2432;51.226;6.904;2022-09-21T14:32:00;14.87;;;2.33;;
4835;SDS011;2432;51.226;6.904;2022-09-21T14:34:30;10.47;;;2.10;;
4835;SDS011;2432;51.226;6.904;2022-09-21T14:37:08;12.60;;;2.10;;
4835;SDS011;2432;51.226;6.904;2022-09-21T14:39:50;10.87;;;2.00;;
4835;SDS011;2432;51.226;6.904;2022-09-21T14:42:18;9.00;;;1.83;;
4835;SDS011;2432;51.226;6.904;2022-09-21T14:44:59;10.40;;;2.40;;
4835;SDS011;2432;51.226;6.904;2022-09-21T14:47:34;14.20;;;2.17;;
4835;SDS011;2432;51.226;6.904;2022-09-21T15:01:58;10.57;;;1.80;;
4835;SDS011;2432;51.226;6.904;2022-09-21T15:07:23;12.17;;;1.70;;
4835;SDS011;2432;51.226;6.904;2022-09-21T15:10:24;13.53;;;1.90;;
4835;SDS011;2432;51.226;6.904;2022-09-21T15:16:00;10.13;;;1.93;;
4835;SDS011;2432;51.226;6.904;2022-09-21T15:18:46;10.00;;;1.97;;
4835;SDS011;2432;51.226;6.904;2022-09-21T15:21:26;12.47;;;1.83;;
4835;SDS011;2432;51.226;6.904;2022-09-21T15:23:54;9.63;;;1.87;;
4835;SDS011;2432;51.226;6.904;2022-09-21T15:26:22;12.37;;;1.80;;
4835;SDS011;2432;51.226;6.904;2022-09-21T15:28:55;10.53;;;1.60;;
4835;SDS011;2432;51.226;6.904;2022-09-21T15:31:38;14.03;;;1.80;;
4835;SDS011;2432;51.226;6.904;2022-09-21T15:34:07;11.23;;;1.60;;
4835;SDS011;2432;51.226;6.904;2022-09-21T15:36:40;10.10;;;2.53;;
4835;SDS011;2432;51.226;6.904;2022-09-21T15:39:29;16.20;;;2.60;;
4835;SDS011;2432;51.226;6.904;2022-09-21T15:44:36;13.83;;;2.53;;
4835;SDS011;2432;51.226;6.904;2022-09-21T15:47:08;13.27;;;2.40;;
4835;SDS011;2432;51.226;6.904;2022-09-21T15:49:38;12.77;;;2.13;;
4835;SDS011;2432;51.226;6.904;2022-09-21T15:52:10;14.27;;;2.10;;
4835;SDS011;2432;51.226;6.904;2022-09-21T15:54:58;11.57;;;2.23;;
4835;SDS011;2432;51.226;6.904;2022-09-21T16:00:15;9.33;;;1.77;;
4835;SDS011;2432;51.226;6.904;2022-09-21T16:02:53;9.30;;;1.93;;
4835;SDS011;2432;51.226;6.904;2022-09-21T16:05:40;14.00;;;2.03;;
4835;SDS011;2432;51.226;6.904;2022-09-21T16:08:20;12.07;;;2.10;;
4835;SDS011;2432;51.226;6.904;2022-09-21T16:11:11;9.80;;;1.40;;
4835;SDS011;2432;51.226;6.904;2022-09-21T16:13:40;12.20;;;1.93;;
4835;SDS011;2432;51.226;6.904;2022-09-21T16:16:26;9.97;;;2.00;;
4835;SDS011;2432;51.226;6.904;2022-09-21T16:18:54;11.93;;;1.93;;
4835;SDS011;2432;51.226;6.904;2022-09-21T16:21:31;9.43;;;1.93;;
4835;SDS011;2432;51.226;6.904;2022-09-21T16:24:07;11.90;;;1.77;;
4835;SDS011;2432;51.226;6.904;2022-09-21T16:26:38;9.70;;;1.60;;
4835;SDS011;2432;51.226;6.904;2022-09-21T16:29:19;10.07;;;2.00;;
4835;SDS011;2432;51.226;6.904;2022-09-21T16:31:49;10.37;;;2.00;;
4835;SDS011;2432;51.226;6.904;2022-09-21T16:36:48;10.97;;;1.90;;
4835;SDS011;2432;51.226;6.904;2022-09-21T16:39:16;10.20;;;1.90;;
4835;SDS011;2432;51.226;6.904;2022-09-21T16:41:51;10.70;;;2.13;;
4835;SDS011;2432;51.226;6.904;2022-09-21T16:46:24;10.60;;;1.53;;
4835;SDS011;2432;51.226;6.904;2022-09-21T16:48:52;10.63;;;1.93;;
4835;SDS011;2432;51.226;6.904;2022-09-21T16:51:20;8.73;;;1.50;;
4835;SDS011;2432;51.226;6.904;2022-09-21T16:53:50;12.23;;;2.07;;
4835;SDS011;2432;51.226;6.904;2022-09-21T16:56:17;13.00;;;1.70;;
4835;SDS011;2432;51.226;6.904;2022-09-21T16:58:44;10.93;;;1.70;;
4835;SDS011;2432;51.226;6.904;2022-09-21T17:01:11;9.90;;;2.50;;
4835;SDS011;2432;51.226;6.904;2022-09-21T17:03:40;14.23;;;3.50;;
4835;SDS011;2432;51.226;6.904;2022-09-21T17:06:17;15.20;;;3.27;;
4835;SDS011;2432;51.226;6.904;2022-09-21T17:08:46;16.70;;;3.13;;
4835;SDS011;2432;51.226;6.904;2022-09-21T17:11:15;13.53;;;2.50;;
4835;SDS011;2432;51.226;6.904;2022-09-21T17:13:45;17.30;;;2.50;;
4835;SDS011;2432;51.226;6.904;2022-09-21T17:16:13;16.67;;;4.20;;
4835;SDS011;2432;51.226;6.904;2022-09-21T17:18:46;13.40;;;3.53;;
4835;SDS011;2432;51.226;6.904;2022-09-21T17:21:17;12.33;;;2.70;;
4835;SDS011;2432;51.226;6.904;2022-09-21T17:23:43;23.03;;;2.70;;
4835;SDS011;2432;51.226;6.904;2022-09-21T17:26:15;11.20;;;2.53;;
4835;SDS011;2432;51.226;6.904;2022-09-21T17:28:46;13.40;;;2.90;;
4835;SDS011;2432;51.226;6.904;2022-09-21T17:31:13;15.63;;;3.00;;
4835;SDS011;2432;51.226;6.904;2022-09-21T17:33:45;11.53;;;2.40;;
4835;SDS011;2432;51.226;6.904;2022-09-21T17:36:16;17.23;;;3.07;;
4835;SDS011;2432;51.226;6.904;2022-09-21T17:38:44;14.40;;;2.77;;
4835;SDS011;2432;51.226;6.904;2022-09-21T17:41:24;22.70;;;8.33;;
4835;SDS011;2432;51.226;6.904;2022-09-21T17:47:18;23.03;;;9.97;;
4835;SDS011;2432;51.226;6.904;2022-09-21T17:49:45;22.80;;;10.57;;
4835;SDS011;2432;51.226;6.904;2022-09-21T17:52:16;22.17;;;5.00;;
4835;SDS011;2432;51.226;6.904;2022-09-21T17:55:03;12.43;;;3.03;;
4835;SDS011;2432;51.226;6.904;2022-09-21T18:00:13;15.60;;;4.50;;
4835;SDS011;2432;51.226;6.904;2022-09-21T18:02:44;11.83;;;2.17;;
4835;SDS011;2432;51.226;6.904;2022-09-21T18:05:18;9.13;;;1.77;;
4835;SDS011;2432;51.226;6.904;2022-09-21T18:07:55;12.30;;;2.10;;
4835;SDS011;2432;51.226;6.904;2022-09-21T18:10:24;11.80;;;2.00;;
4835;SDS011;2432;51.226;6.904;2022-09-21T18:13:02;12.87;;;2.00;;
4835;SDS011;2432;51.226;6.904;2022-09-21T18:18:38;10.97;;;2.50;;
4835;SDS011;2432;51.226;6.904;2022-09-21T18:21:12;11.97;;;2.93;;
4835;SDS011;2432;51.226;6.904;2022-09-21T18:23:51;14.47;;;3.27;;
4835;SDS011;2432;51.226;6.904;2022-09-21T18:26:42;18.10;;;3.30;;
4835;SDS011;2432;51.226;6.904;2022-09-21T18:29:28;16.20;;;3.73;;
4835;SDS011;2432;51.226;6.904;2022-09-21T18:40:21;17.90;;;5.23;;
4835;SDS011;2432;51.226;6.904;2022-09-21T18:45:31;13.33;;;3.70;;